createdAt,value
2018-09-30T00:00:54.309Z,5.80
2018-09-30T00:03:22.610Z,5.20
2018-09-30T00:05:50.866Z,4.72
2018-09-30T00:08:19.124Z,5.15
2018-09-30T00:10:47.494Z,4.83
2018-09-30T00:13:15.791Z,4.62
2018-09-30T00:15:44.087Z,4.20
2018-09-30T00:18:12.349Z,4.90
2018-09-30T00:20:40.623Z,4.57
2018-09-30T00:23:08.882Z,5.40
2018-09-30T00:25:42.574Z,4.90
2018-09-30T00:28:10.844Z,4.70
2018-09-30T00:30:39.118Z,4.45
2018-09-30T00:33:07.439Z,4.50
2018-09-30T00:35:35.719Z,4.27
2018-09-30T00:38:04.037Z,4.95
2018-09-30T00:40:32.352Z,4.22
2018-09-30T00:43:00.681Z,4.25
2018-09-30T00:45:28.957Z,4.40
2018-09-30T00:47:57.218Z,4.85
2018-09-30T00:50:25.510Z,4.40
2018-09-30T00:52:53.754Z,4.90
2018-09-30T00:55:22.023Z,4.50
2018-09-30T00:57:50.292Z,4.50
2018-09-30T01:00:18.579Z,4.17
2018-09-30T01:02:46.826Z,4.67
2018-09-30T01:05:15.101Z,4.53
2018-09-30T01:07:43.367Z,4.80
2018-09-30T01:10:11.671Z,3.95
2018-09-30T01:12:39.934Z,4.90
2018-09-30T01:15:08.232Z,4.10
2018-09-30T01:17:36.479Z,4.20
2018-09-30T01:20:04.854Z,4.42
2018-09-30T01:22:33.127Z,4.65
2018-09-30T01:25:01.407Z,4.55
2018-09-30T01:27:29.665Z,4.50
2018-09-30T01:29:57.946Z,4.35
2018-09-30T01:32:26.211Z,3.87
2018-09-30T01:34:54.482Z,3.85
2018-09-30T01:37:22.738Z,3.70
2018-09-30T01:39:51.025Z,3.75
2018-09-30T01:42:19.291Z,3.52
2018-09-30T01:44:47.542Z,3.65
2018-09-30T01:47:15.824Z,3.83
2018-09-30T01:49:44.114Z,3.30
2018-09-30T01:52:23.774Z,2.90
2018-09-30T01:54:52.022Z,2.90
2018-09-30T01:57:20.434Z,3.20
2018-09-30T01:59:48.722Z,3.10
2018-09-30T02:02:16.995Z,2.77
2018-09-30T02:04:45.267Z,2.50
2018-09-30T02:07:13.559Z,2.85
2018-09-30T02:09:41.837Z,2.50
2018-09-30T02:12:10.103Z,2.60
2018-09-30T02:14:38.373Z,2.50
2018-09-30T02:17:06.650Z,2.30
2018-09-30T02:19:34.931Z,2.50
2018-09-30T02:22:03.218Z,2.77
2018-09-30T02:24:31.478Z,2.30
2018-09-30T02:26:59.770Z,2.33
2018-09-30T02:29:28.040Z,1.70
2018-09-30T02:31:56.346Z,2.45
2018-09-30T02:34:24.618Z,2.65
2018-09-30T02:36:52.891Z,2.02
2018-09-30T02:39:21.142Z,1.87
2018-09-30T02:41:49.445Z,2.30
2018-09-30T02:44:17.741Z,2.12
2018-09-30T02:46:46.034Z,2.00
2018-09-30T02:49:14.288Z,2.40
2018-09-30T02:51:42.591Z,2.15
2018-09-30T02:54:10.867Z,2.22
2018-09-30T02:56:39.143Z,2.12
2018-09-30T02:59:07.619Z,2.20
2018-09-30T03:01:35.942Z,2.50
2018-09-30T03:04:04.218Z,2.20
2018-09-30T03:06:37.818Z,2.20
2018-09-30T03:09:15.062Z,1.95
2018-09-30T03:11:43.541Z,2.20
2018-09-30T03:14:13.030Z,2.45
2018-09-30T03:16:41.810Z,1.80
2018-09-30T03:19:10.103Z,1.65
2018-09-30T03:21:38.402Z,1.70
2018-09-30T03:24:06.978Z,2.10
2018-09-30T03:26:35.303Z,1.90
2018-09-30T03:29:03.588Z,2.20
2018-09-30T03:31:31.929Z,2.20
2018-09-30T03:34:00.222Z,2.27
2018-09-30T03:36:28.603Z,1.80
2018-09-30T03:38:56.923Z,2.72
2018-09-30T03:41:25.206Z,2.55
2018-09-30T03:43:53.514Z,1.90
2018-09-30T03:46:21.823Z,1.82
2018-09-30T03:48:50.175Z,2.17
2018-09-30T03:51:18.467Z,1.98
2018-09-30T03:53:46.774Z,1.80
2018-09-30T03:56:15.055Z,2.43
2018-09-30T03:58:43.350Z,2.58
2018-09-30T04:01:11.639Z,2.27
2018-09-30T04:03:39.949Z,2.22
2018-09-30T04:06:08.235Z,2.30
2018-09-30T04:08:36.523Z,2.20
2018-09-30T04:11:04.806Z,2.40
2018-09-30T04:13:33.120Z,2.20
2018-09-30T04:16:01.391Z,2.02
2018-09-30T04:18:29.670Z,2.05
2018-09-30T04:20:57.950Z,1.97
2018-09-30T04:23:26.243Z,1.95
2018-09-30T04:25:54.506Z,2.45
2018-09-30T04:28:22.788Z,1.87
2018-09-30T04:30:51.059Z,1.80
2018-09-30T04:33:19.406Z,2.00
2018-09-30T04:35:47.634Z,1.90
2018-09-30T04:38:15.997Z,2.10
2018-09-30T04:40:44.263Z,1.90
2018-09-30T04:43:12.531Z,2.00
2018-09-30T04:45:40.794Z,2.30
2018-09-30T04:48:09.069Z,1.67
2018-09-30T04:50:37.346Z,2.00
2018-09-30T04:53:05.609Z,2.00
2018-09-30T04:55:33.893Z,2.58
2018-09-30T04:58:02.174Z,1.90
2018-09-30T05:00:30.471Z,1.92
2018-09-30T05:02:58.732Z,2.00
2018-09-30T05:05:27.058Z,2.10
2018-09-30T05:07:55.326Z,2.10
2018-09-30T05:10:23.610Z,1.70
2018-09-30T05:12:51.938Z,1.77
2018-09-30T05:15:20.234Z,2.00
2018-09-30T05:17:48.497Z,2.10
2018-09-30T05:20:16.790Z,1.90
2018-09-30T05:22:45.094Z,2.33
2018-09-30T05:25:13.391Z,1.75
2018-09-30T05:27:41.666Z,1.95
2018-09-30T05:30:09.973Z,2.20
2018-09-30T05:32:38.291Z,1.90
2018-09-30T05:35:06.815Z,1.50
2018-09-30T05:37:35.093Z,1.70
2018-09-30T05:40:03.414Z,1.72
2018-09-30T05:42:31.702Z,2.12
2018-09-30T05:45:00.043Z,2.10
2018-09-30T05:47:28.333Z,2.00
2018-09-30T05:49:56.634Z,1.70
2018-09-30T05:52:24.917Z,2.10
2018-09-30T05:54:53.210Z,2.12
2018-09-30T05:57:21.555Z,2.55
2018-09-30T05:59:49.810Z,1.90
2018-09-30T06:02:18.109Z,2.62
2018-09-30T06:04:46.410Z,2.20
2018-09-30T06:07:14.707Z,1.95
2018-09-30T06:09:42.983Z,1.75
2018-09-30T06:12:11.279Z,2.00
2018-09-30T06:14:39.592Z,2.30
2018-09-30T06:17:07.879Z,2.20
2018-09-30T06:19:36.162Z,2.80
2018-09-30T06:22:04.451Z,4.90
2018-09-30T06:24:32.716Z,6.58
2018-09-30T06:27:01.037Z,6.10
2018-09-30T06:29:29.407Z,4.10
2018-09-30T06:31:57.728Z,3.00
2018-09-30T06:34:25.953Z,2.40
2018-09-30T06:36:54.252Z,2.80
2018-09-30T06:39:22.514Z,2.20
2018-09-30T06:41:50.812Z,2.20
2018-09-30T06:44:19.080Z,2.20
2018-09-30T06:46:47.443Z,2.90
2018-09-30T06:49:15.702Z,4.30
2018-09-30T06:51:44.570Z,6.12
2018-09-30T06:54:12.828Z,5.00
2018-09-30T06:56:41.118Z,7.50
2018-09-30T06:59:09.426Z,5.97
2018-09-30T07:01:37.719Z,7.60
2018-09-30T07:04:06.063Z,7.95
2018-09-30T07:06:34.350Z,7.10
2018-09-30T07:09:02.632Z,6.77
2018-09-30T07:11:30.995Z,5.90
2018-09-30T07:13:59.282Z,4.70
2018-09-30T07:16:27.574Z,4.37
2018-09-30T07:18:55.868Z,2.80
2018-09-30T07:21:24.158Z,3.37
2018-09-30T07:23:52.418Z,2.50
2018-09-30T07:26:20.720Z,2.50
2018-09-30T07:28:49.038Z,2.97
2018-09-30T07:31:17.422Z,2.43
2018-09-30T07:33:45.722Z,2.70
2018-09-30T07:36:14.007Z,2.80
2018-09-30T07:38:42.294Z,3.00
2018-09-30T07:41:10.690Z,2.72
2018-09-30T07:43:39.008Z,2.50
2018-09-30T07:46:07.695Z,2.73
2018-09-30T07:48:36.024Z,2.90
2018-09-30T07:51:04.354Z,2.92
2018-09-30T07:53:32.690Z,3.00
2018-09-30T07:56:01.851Z,3.23
2018-09-30T07:58:30.204Z,3.60
2018-09-30T08:00:58.594Z,4.30
2018-09-30T08:03:27.032Z,3.20
2018-09-30T08:05:55.375Z,2.75
2018-09-30T08:08:23.747Z,3.27
2018-09-30T08:10:52.287Z,2.90
2018-09-30T08:13:20.609Z,2.67
2018-09-30T08:15:48.950Z,2.57
2018-09-30T08:18:17.549Z,2.58
2018-09-30T08:20:45.834Z,2.45
2018-09-30T08:23:14.123Z,3.03
2018-09-30T08:25:42.473Z,2.80
2018-09-30T08:28:10.836Z,2.90
2018-09-30T08:30:39.378Z,2.80
2018-09-30T08:33:07.759Z,2.27
2018-09-30T08:35:36.095Z,2.20
2018-09-30T08:38:09.818Z,2.60
2018-09-30T08:40:43.423Z,2.72
2018-09-30T08:43:11.730Z,2.47
2018-09-30T08:45:40.075Z,2.60
2018-09-30T08:48:08.334Z,2.70
2018-09-30T08:50:36.714Z,2.45
2018-09-30T08:53:05.038Z,2.50
2018-09-30T08:55:33.315Z,2.70
2018-09-30T08:58:01.625Z,2.70
2018-09-30T09:00:29.901Z,2.62
2018-09-30T09:02:58.249Z,2.73
2018-09-30T09:05:26.510Z,3.20
2018-09-30T09:07:54.842Z,2.83
2018-09-30T09:10:23.106Z,2.60
2018-09-30T09:12:51.410Z,2.63
2018-09-30T09:15:19.747Z,3.22
2018-09-30T09:17:48.034Z,3.00
2018-09-30T09:20:16.395Z,2.60
2018-09-30T09:22:44.747Z,3.45
2018-09-30T09:25:13.063Z,4.30
2018-09-30T09:27:41.356Z,4.00
2018-09-30T09:32:27.264Z,3.70
2018-09-30T09:34:56.256Z,3.62
2018-09-30T09:37:25.182Z,3.00
2018-09-30T09:39:54.174Z,3.00
2018-09-30T09:42:23.159Z,3.75
2018-09-30T09:44:52.182Z,3.22
2018-09-30T09:47:21.163Z,3.53
2018-09-30T09:49:50.756Z,3.30
2018-09-30T09:52:19.788Z,2.97
2018-09-30T09:54:48.801Z,2.80
2018-09-30T09:57:17.780Z,3.00
2018-09-30T09:59:46.770Z,3.20
2018-09-30T10:02:15.751Z,2.90
2018-09-30T10:04:44.782Z,2.87
2018-09-30T10:07:13.731Z,3.00
2018-09-30T10:09:42.694Z,3.03
2018-09-30T10:12:11.801Z,3.40
2018-09-30T10:14:40.782Z,2.80
2018-09-30T10:17:09.795Z,2.70
2018-09-30T10:19:38.879Z,2.95
2018-09-30T10:22:08.081Z,2.92
2018-09-30T10:24:37.027Z,2.60
2018-09-30T10:27:06.004Z,3.10
2018-09-30T10:29:35.050Z,2.40
2018-09-30T10:32:04.015Z,2.90
2018-09-30T10:34:32.988Z,2.77
2018-09-30T10:37:02.150Z,2.40
2018-09-30T10:39:31.131Z,2.20
2018-09-30T10:42:00.170Z,2.73
2018-09-30T10:44:29.115Z,2.72
2018-09-30T10:46:58.106Z,2.90
2018-09-30T10:49:27.061Z,2.47
2018-09-30T10:51:57.102Z,3.15
2018-09-30T10:54:26.134Z,2.02
2018-09-30T10:56:55.152Z,2.80
2018-09-30T10:59:24.087Z,2.65
2018-09-30T11:01:53.339Z,2.60
2018-09-30T11:04:22.412Z,2.70
2018-09-30T11:06:51.370Z,3.40
2018-09-30T11:09:20.327Z,2.47
2018-09-30T11:11:49.302Z,2.50
2018-09-30T11:14:18.263Z,2.90
2018-09-30T11:16:47.228Z,2.53
2018-09-30T11:19:16.175Z,3.20
2018-09-30T11:21:45.226Z,2.90
2018-09-30T11:24:14.190Z,2.70
2018-09-30T11:26:43.178Z,2.75
2018-09-30T11:29:12.126Z,2.75
2018-09-30T11:31:41.217Z,2.90
2018-09-30T11:34:10.146Z,3.20
2018-09-30T11:36:39.158Z,2.75
2018-09-30T11:39:09.651Z,2.60
2018-09-30T11:41:38.619Z,3.02
2018-09-30T11:44:07.570Z,2.50
2018-09-30T11:46:36.536Z,3.30
2018-09-30T11:49:06.085Z,3.10
2018-09-30T11:51:35.067Z,3.00
2018-09-30T11:54:04.082Z,3.40
2018-09-30T11:56:33.350Z,4.00
2018-09-30T11:59:02.590Z,3.03
2018-09-30T12:01:31.526Z,3.47
2018-09-30T12:04:00.498Z,3.00
2018-09-30T12:06:29.458Z,2.87
2018-09-30T12:08:58.437Z,2.75
2018-09-30T12:11:27.486Z,2.87
2018-09-30T12:13:56.467Z,3.23
2018-09-30T12:16:25.427Z,3.33
2018-09-30T12:18:54.410Z,3.20
2018-09-30T12:21:23.370Z,3.40
2018-09-30T12:23:52.351Z,3.30
2018-09-30T12:26:21.330Z,3.25
2018-09-30T12:28:50.306Z,3.53
2018-09-30T12:31:19.238Z,3.70
2018-09-30T12:33:48.250Z,3.80
2018-09-30T12:36:17.210Z,3.40
2018-09-30T12:38:46.189Z,4.00
2018-09-30T12:41:15.154Z,3.50
2018-09-30T12:43:44.123Z,3.70
2018-09-30T12:46:13.647Z,3.57
2018-09-30T12:48:42.674Z,4.20
2018-09-30T12:51:11.639Z,3.60
2018-09-30T12:53:40.615Z,3.70
2018-09-30T12:56:09.573Z,4.37
2018-09-30T12:58:38.584Z,3.40
2018-09-30T13:01:07.550Z,3.83
2018-09-30T13:03:36.510Z,4.00
2018-09-30T13:06:05.466Z,4.15
2018-09-30T13:08:34.527Z,3.73
2018-09-30T13:11:03.474Z,4.12
2018-09-30T13:13:32.502Z,4.03
2018-09-30T13:16:01.446Z,3.67
2018-09-30T13:18:30.374Z,4.00
2018-09-30T13:20:59.670Z,3.50
2018-09-30T13:23:28.621Z,3.80
2018-09-30T13:25:58.178Z,3.87
2018-09-30T13:28:27.087Z,3.83
2018-09-30T13:30:56.035Z,4.70
2018-09-30T13:33:25.093Z,4.10
2018-09-30T13:35:54.046Z,3.90
2018-09-30T13:38:22.987Z,3.90
2018-09-30T13:40:52.102Z,4.03
2018-09-30T13:43:20.982Z,4.40
2018-09-30T13:45:49.942Z,4.20
2018-09-30T13:48:18.882Z,6.90
2018-09-30T13:50:47.839Z,12.33
2018-09-30T13:53:16.775Z,14.03
2018-09-30T13:55:45.746Z,7.08
2018-09-30T13:58:14.755Z,5.08
2018-09-30T14:00:43.715Z,10.38
2018-09-30T14:03:12.650Z,4.40
2018-09-30T14:05:41.602Z,4.30
2018-09-30T14:08:10.534Z,5.35
2018-09-30T14:10:39.486Z,4.35
2018-09-30T14:13:08.462Z,4.60
2018-09-30T14:15:37.486Z,4.00
2018-09-30T14:18:06.444Z,4.45
2018-09-30T14:20:35.403Z,3.42
2018-09-30T14:23:04.413Z,4.40
2018-09-30T14:25:33.429Z,3.90
2018-09-30T14:28:02.371Z,4.17
2018-09-30T14:30:31.398Z,3.95
2018-09-30T14:33:00.400Z,3.90
2018-09-30T14:35:30.363Z,4.35
2018-09-30T14:37:59.306Z,4.10
2018-09-30T14:40:28.283Z,3.87
2018-09-30T14:42:57.222Z,3.70
2018-09-30T14:45:26.278Z,4.30
2018-09-30T14:47:55.268Z,4.40
2018-09-30T14:50:24.222Z,4.03
2018-09-30T14:52:53.222Z,4.10
2018-09-30T14:55:22.186Z,3.92
2018-09-30T14:57:51.275Z,4.20
2018-09-30T15:00:20.233Z,4.83
2018-09-30T15:02:49.245Z,4.90
2018-09-30T15:05:18.198Z,4.10
2018-09-30T15:07:47.166Z,4.37
2018-09-30T15:10:16.178Z,4.03
2018-09-30T15:12:45.206Z,6.43
2018-09-30T15:15:14.218Z,4.83
2018-09-30T15:17:43.211Z,5.60
2018-09-30T15:20:12.186Z,4.90
2018-09-30T15:22:41.983Z,4.70
2018-09-30T15:25:10.943Z,4.87
2018-09-30T15:27:39.912Z,4.40
2018-09-30T15:30:08.863Z,4.12
2018-09-30T15:32:37.851Z,4.08
2018-09-30T15:35:06.806Z,4.30
2018-09-30T15:37:35.771Z,3.85
2018-09-30T15:40:04.758Z,3.92
2018-09-30T15:42:33.778Z,4.07
2018-09-30T15:45:02.798Z,4.00
2018-09-30T15:47:31.755Z,4.50
2018-09-30T15:50:00.721Z,4.30
2018-09-30T15:52:29.747Z,3.33
2018-09-30T15:54:58.697Z,3.40
2018-09-30T15:57:27.714Z,4.08
2018-09-30T15:59:56.677Z,3.80
2018-09-30T16:02:25.663Z,4.10
2018-09-30T16:04:54.634Z,3.85
2018-09-30T16:07:23.619Z,3.87
2018-09-30T16:09:52.568Z,3.40
2018-09-30T16:12:21.510Z,3.45
2018-09-30T16:14:50.515Z,3.90
2018-09-30T16:17:19.458Z,3.67
2018-09-30T16:19:48.423Z,4.00
2018-09-30T16:22:17.378Z,4.00
2018-09-30T16:24:46.690Z,3.93
2018-09-30T16:27:15.654Z,4.10
2018-09-30T16:29:44.622Z,4.30
2018-09-30T16:32:13.635Z,4.13
2018-09-30T16:34:42.643Z,4.70
2018-09-30T16:37:11.606Z,4.50
2018-09-30T16:39:40.622Z,4.40
2018-09-30T16:42:09.593Z,4.37
2018-09-30T16:44:38.638Z,4.20
2018-09-30T16:47:07.592Z,4.60
2018-09-30T16:49:36.550Z,4.17
2018-09-30T16:52:05.498Z,4.50
2018-09-30T16:54:34.471Z,4.60
2018-09-30T16:57:03.919Z,3.62
2018-09-30T16:59:32.879Z,4.00
2018-09-30T17:02:01.822Z,4.42
2018-09-30T17:04:30.796Z,4.00
2018-09-30T17:06:59.742Z,4.10
2018-09-30T17:09:28.738Z,3.62
2018-09-30T17:11:57.703Z,3.60
2018-09-30T17:14:26.741Z,3.62
2018-09-30T17:16:55.798Z,4.30
2018-09-30T17:19:24.775Z,3.70
2018-09-30T17:21:53.799Z,3.70
2018-09-30T17:24:22.773Z,3.90
2018-09-30T17:26:51.715Z,3.67
2018-09-30T17:29:20.662Z,3.70
2018-09-30T17:31:49.587Z,3.30
2018-09-30T17:34:19.558Z,4.10
2018-09-30T17:36:48.480Z,3.63
2018-09-30T17:39:17.539Z,3.90
2018-09-30T17:41:46.471Z,3.65
2018-09-30T17:44:15.458Z,3.67
2018-09-30T17:46:44.406Z,3.47
2018-09-30T17:49:13.352Z,3.90
2018-09-30T17:51:42.379Z,3.87
2018-09-30T17:54:11.374Z,3.90
2018-09-30T17:56:40.311Z,4.00
2018-09-30T17:59:09.327Z,4.60
2018-09-30T18:01:38.519Z,4.10
2018-09-30T18:04:07.530Z,4.50
2018-09-30T18:06:36.515Z,4.30
2018-09-30T18:09:09.107Z,4.46
2018-09-30T18:11:38.187Z,4.65
2018-09-30T18:14:07.212Z,4.63
2018-09-30T18:16:36.178Z,4.50
2018-09-30T18:19:05.262Z,4.80
2018-09-30T18:21:34.271Z,4.47
2018-09-30T18:24:03.221Z,3.90
2018-09-30T18:26:32.210Z,4.33
2018-09-30T18:29:01.146Z,5.00
2018-09-30T18:31:30.255Z,4.10
2018-09-30T18:33:59.222Z,3.63
2018-09-30T18:36:28.185Z,4.03
2018-09-30T18:38:57.160Z,3.90
2018-09-30T18:41:26.137Z,3.80
2018-09-30T18:43:55.099Z,4.70
2018-09-30T18:46:24.106Z,4.53
2018-09-30T18:48:54.136Z,4.70
2018-09-30T18:51:23.122Z,5.37
2018-09-30T18:53:52.087Z,5.45
2018-09-30T18:56:21.181Z,5.70
2018-09-30T18:58:50.131Z,5.95
2018-09-30T19:01:19.102Z,5.60
2018-09-30T19:03:48.170Z,6.20
2018-09-30T19:06:17.155Z,6.37
2018-09-30T19:08:46.190Z,5.33
2018-09-30T19:11:15.171Z,5.70
2018-09-30T19:13:44.215Z,5.60
2018-09-30T19:16:13.330Z,5.43
2018-09-30T19:18:42.122Z,4.90
2018-09-30T19:21:11.117Z,5.15
2018-09-30T19:23:40.970Z,4.92
2018-09-30T19:26:09.949Z,4.87
2018-09-30T19:28:38.914Z,5.20
2018-09-30T19:31:08.075Z,5.00
2018-09-30T19:33:37.011Z,5.70
2018-09-30T19:36:06.014Z,5.30
2018-09-30T19:38:34.930Z,5.42
2018-09-30T19:41:03.886Z,5.58
2018-09-30T19:43:32.823Z,5.50
2018-09-30T19:46:01.796Z,4.50
2018-09-30T19:48:30.765Z,4.97
2018-09-30T19:50:59.707Z,5.53
2018-09-30T19:53:28.634Z,5.00
2018-09-30T19:55:57.633Z,5.67
2018-09-30T19:58:26.538Z,4.60
2018-09-30T20:00:55.473Z,5.03
2018-09-30T20:03:24.442Z,4.90
2018-09-30T20:05:53.371Z,4.43
2018-09-30T20:08:22.334Z,5.10
2018-09-30T20:10:51.318Z,5.15
2018-09-30T20:13:20.294Z,5.22
2018-09-30T20:15:49.266Z,5.90
2018-09-30T20:18:18.299Z,5.20
2018-09-30T20:20:47.300Z,5.12
2018-09-30T20:23:16.276Z,6.30
2018-09-30T20:25:45.236Z,5.67
2018-09-30T20:28:14.202Z,5.53
2018-09-30T20:30:43.174Z,6.00
2018-09-30T20:33:12.147Z,5.30
2018-09-30T20:35:41.091Z,6.33
2018-09-30T20:38:10.059Z,5.70
2018-09-30T20:40:40.831Z,6.20
2018-09-30T20:43:09.810Z,6.33
2018-09-30T20:45:39.405Z,5.90
2018-09-30T20:48:08.931Z,6.43
2018-09-30T20:50:37.996Z,5.50
2018-09-30T20:53:06.991Z,6.00
2018-09-30T20:55:36.193Z,5.70
2018-09-30T20:58:05.179Z,5.72
2018-09-30T21:00:34.132Z,6.07
2018-09-30T21:03:03.090Z,6.00
2018-09-30T21:06:39.667Z,5.75
2018-09-30T21:09:10.786Z,5.72
2018-09-30T21:11:39.879Z,5.85
2018-09-30T21:14:08.849Z,6.07
2018-09-30T21:16:37.866Z,6.20
2018-09-30T21:19:06.814Z,6.80
2018-09-30T21:21:42.320Z,6.67
2018-09-30T21:24:11.309Z,6.43
2018-09-30T21:26:40.223Z,6.78
2018-09-30T21:29:09.165Z,5.95
2018-09-30T21:31:38.082Z,5.60
2018-09-30T21:34:07.075Z,6.58
2018-09-30T21:36:36.087Z,5.63
2018-09-30T21:39:08.386Z,6.40
2018-09-30T21:41:37.415Z,6.20
2018-09-30T21:44:06.506Z,5.78
2018-09-30T21:46:35.446Z,6.30
2018-09-30T21:49:04.440Z,5.50
2018-09-30T21:51:33.394Z,6.00
2018-09-30T21:54:02.438Z,6.20
2018-09-30T21:56:31.362Z,6.10
2018-09-30T21:59:00.302Z,6.72
2018-09-30T22:01:29.366Z,6.33
2018-09-30T22:03:58.306Z,6.40
2018-09-30T22:06:27.366Z,7.17
2018-09-30T22:08:56.330Z,6.90
2018-09-30T22:11:25.258Z,7.20
2018-09-30T22:13:54.218Z,7.30
2018-09-30T22:16:23.178Z,7.22
2018-09-30T22:18:52.177Z,7.63
2018-09-30T22:21:21.104Z,6.65
2018-09-30T22:23:50.043Z,7.40
2018-09-30T22:26:19.055Z,7.95
2018-09-30T22:28:48.002Z,7.67
2018-09-30T22:31:16.919Z,7.22
2018-09-30T22:33:45.864Z,7.47
2018-09-30T22:36:14.779Z,7.20
2018-09-30T22:38:43.731Z,7.70
2018-09-30T22:41:12.647Z,7.37
2018-09-30T22:43:41.614Z,6.92
2018-09-30T22:46:10.581Z,7.92
2018-09-30T22:48:39.555Z,7.10
2018-09-30T22:51:08.471Z,7.20
2018-09-30T22:53:37.438Z,7.33
2018-09-30T22:56:06.374Z,7.20
2018-09-30T22:58:35.311Z,7.17
2018-09-30T23:01:04.231Z,7.58
2018-09-30T23:03:33.199Z,7.10
2018-09-30T23:06:02.166Z,7.40
2018-09-30T23:08:31.106Z,7.20
2018-09-30T23:11:00.050Z,7.40
2018-09-30T23:13:29.030Z,7.00
2018-09-30T23:15:57.977Z,7.20
2018-09-30T23:18:27.062Z,7.30
2018-09-30T23:20:56.001Z,7.15
2018-09-30T23:23:24.966Z,7.40
2018-09-30T23:25:53.998Z,7.90
2018-09-30T23:28:22.963Z,7.70
2018-09-30T23:30:51.949Z,7.37
2018-09-30T23:33:20.919Z,7.50
2018-09-30T23:35:49.884Z,7.30
2018-09-30T23:38:18.866Z,8.20
2018-09-30T23:40:47.809Z,7.33
2018-09-30T23:43:16.752Z,7.20
2018-09-30T23:45:45.763Z,7.10
2018-09-30T23:48:14.708Z,7.87
2018-09-30T23:50:44.131Z,7.87
2018-09-30T23:53:13.071Z,7.75
2018-09-30T23:55:42.058Z,8.23
2018-09-30T23:58:14.618Z,8.00
